KCEZ

Cortez Municipal Airport

Airport
ICAO code
KCEZ
IATA Code
CEZ
Summary
ICAO Region
NAM
ICAO Territory
Location

Cortez, Colorado

Serving
Cortez
Elevation
5918 ft
Coordinates
37° 18' 15" N , 108° 37' 47" W
KCC
Airport CFIT
Altimeter Temperature Error Correction
Airport RE
Hot and High Operations
Airport WX
Mountain Waves
Metar
KCEZ 201853Z AUTO 23007KT 10SM CLR 28/11 A3028 RMK AO2 LTG DSNT N AND E SLP167 T02780106

Description

Cortez Municipal Airport is a city owned, public use airport located 3 nm southwest of the central business district of Cortez, a city in Montezuma County, Colorado, USA. It is also known as Montezuma County Airport.

Airport map

Aerial View

SKYbrary Partners:

Safety knowledge contributed by: